• Join FlightAware (Why Join?)
  • Login
  • US Flag 
 
11:24AM EST


 

Airport Tracker/Info


-or-


 

Live Flight TrackerFlight Track Log ✈ SWA2150 ✈ 04-May-2013 ✈ KOAK - KBOI

Flight Track Log - Related Links

Times and Time Zones

All times are in EDT time to prevent confusion due to time zone crossing. See the SWA2150 flight status page for this flight to view local times or setup timezone preferences in your user account.

Time Position Orientation Groundspeed Altitude Reporting Facility
EDT Latitude Longitude Course Direction KTS MPH feet Rate Location/Type
09:09PM 37.7833 -122.3000 332° Northwest 236 272 5,000  Level Northern Cal TRACON
09:10PM 37.8333 -122.2500 38° Northeast 265 305 8,300 3,120 Climbing Northern Cal TRACON
09:11PM 37.9000 -122.1667 45° Northeast 311 358 11,300 3,300 Climbing Northern Cal TRACON
09:12PM 37.9881 -122.0728 40° Northeast 359 413 15,500 3,540 Climbing Oakland Center
09:13PM 38.1494 -121.8131 35° Northeast  Level FlightAware Approximate
09:13PM 38.0669 -121.9847 41° Northeast 377 434 19,000  Level Oakland Center
09:14PM 38.1550 -121.8981 38° Northeast 399 459 22,000 2,820 Climbing Oakland Center
09:15PM 38.2481 -121.8108 36° Northeast 415 478 24,800 2,580 Climbing Oakland Center
09:16PM 38.3439 -121.7192 37° Northeast 430 495 27,300 2,280 Climbing Oakland Center
09:17PM 38.4369 -121.6297 37° Northeast 440 506 29,500 2,280 Climbing Oakland Center
09:18PM 38.5592 -121.5125 37° Northeast 450 518 32,000 2,040 Climbing Oakland Center
09:19PM 38.6422 -121.4317 37° Northeast 451 519 33,700 1,620 Climbing Oakland Center
09:20PM 38.7439 -121.3336 37° Northeast 452 520 35,400 1,740 Climbing Oakland Center
09:21PM 38.8467 -121.2339 37° Northeast 457 526 37,300 1,260 Climbing Oakland Center
09:22PM 38.9636 -121.1189 37° Northeast 444 511 38,000 300 Climbing Oakland Center
09:23PM 39.0606 -121.0222 38° Northeast 441 507 38,000 240 Level Oakland Center
09:24PM 39.1603 -120.9258 37° Northeast 446 513 38,600 780 Climbing Oakland Center
09:25PM 39.2619 -120.8236 38° Northeast 464 534 39,600 1,080 Climbing Oakland Center
09:26PM 39.3633 -120.7231 37° Northeast 461 531 40,800 660 Climbing Oakland Center
09:27PM 39.4642 -120.6231 37° Northeast 459 528 41,000 60 Climbing Oakland Center
09:28PM 39.5642 -120.5239 37° Northeast 454 522 41,000  Level Oakland Center
09:29PM 39.6639 -120.4236 38° Northeast 453 521 41,000  Level Oakland Center
09:30PM 39.7614 -120.3242 38° Northeast 448 516 41,000  Level Oakland Center
09:31PM 39.8611 -120.2239 38° Northeast 452 520 41,000  Level Oakland Center
09:32PM 39.9744 -120.1086 38° Northeast 457 526 41,000  Level Oakland Center
09:33PM 40.0747 -120.0050 38° Northeast 458 527 41,000  Level Oakland Center
09:34PM 40.1769 -119.9031 37° Northeast 460 529 41,000  Level Oakland Center
09:35PM 40.2761 -119.8003 38° Northeast 455 524 41,000  Level Oakland Center
09:36PM 40.3761 -119.6981 38° Northeast 454 522 41,000  Level Oakland Center
09:37PM 40.4744 -119.5964 38° Northeast 452 520 41,000  Level Oakland Center
09:38PM 40.5767 -119.4914 38° Northeast 448 516 41,000  Level Oakland Center
09:39PM 40.6728 -119.3967 37° Northeast 449 517 41,000  Level Oakland Center
09:40PM 40.7717 -119.2975 37° Northeast 447 514 41,000  Level Oakland Center
09:41PM 40.8717 -119.1986 37° Northeast 444 511 41,000  Level Oakland Center
09:42PM 40.9494 -119.1186 38° Northeast 442 509 41,000  Level Salt Lake Center
09:43PM 41.0425 -119.0253 37° Northeast 439 505 41,000  Level Salt Lake Center
09:44PM 41.1531 -118.9153 37° Northeast 441 507 41,000  Level Salt Lake Center
09:45PM 41.2464 -118.8197 38° Northeast 442 509 41,000  Level Salt Lake Center
09:46PM 41.3414 -118.7244 37° Northeast 445 512 41,000  Level Salt Lake Center
09:47PM 41.4514 -118.6133 37° Northeast 443 510 41,000  Level Salt Lake Center
09:48PM 41.5450 -118.5164 38° Northeast 443 510 41,000  Level Salt Lake Center
09:49PM 41.6397 -118.4186 38° Northeast 447 514 41,000  Level Salt Lake Center
09:50PM 41.7472 -118.3078 38° Northeast 437 503 41,000  Level Salt Lake Center
09:51PM 41.8392 -118.2117 38° Northeast 437 503 41,000  Level Salt Lake Center
09:52PM 41.9306 -118.1158 38° Northeast 436 502 41,000  Level Salt Lake Center
09:53PM 42.0378 -118.0058 37° Northeast 434 499 41,000  Level Salt Lake Center
09:54PM 42.1289 -117.9086 38° Northeast 435 501 41,000 -480 Level Salt Lake Center
09:55PM 42.2275 -117.8053 38° Northeast 439 505 40,100 -1,740 Descending Salt Lake Center
09:56PM 42.3194 -117.7039 39° Northeast 439 505 37,500 -3,000 Descending Salt Lake Center
09:57PM 42.4267 -117.5903 38° Northeast 439 505 34,100 -3,060 Descending Salt Lake Center
09:58PM 42.5158 -117.4947 38° Northeast 426 490 31,300 -2,760 Descending Salt Lake Center
09:59PM 42.6042 -117.4011 38° Northeast 418 481 28,500 -3,000 Descending Salt Lake Center
10:00PM 42.7042 -117.2919 39° Northeast 411 473 25,200 -2,760 Descending Salt Lake Center
10:01PM 42.7875 -117.2022 38° Northeast 400 460 22,900 -2,340 Descending Salt Lake Center
10:02PM 42.8786 -117.1044 38° Northeast 377 434 20,500 -2,220 Descending Salt Lake Center
10:03PM 42.9547 -117.0222 38° Northeast 365 420 18,500 -1,980 Descending Salt Lake Center
10:04PM 43.0283 -116.9419 39° Northeast 354 407 16,500 -2,160 Descending Salt Lake Center
10:05PM 43.1111 -116.8514 39° Northeast 341 392 14,200 -2,160 Descending Salt Lake Center
10:06PM 43.1825 -116.7744 38° Northeast 330 380 12,200 -1,920 Descending Salt Lake Center
10:07PM 43.2533 -116.6958 39° Northeast 316 364 10,300 -1,560 Descending Salt Lake Center
10:08PM 43.3128 -116.6300 39° Northeast 286 329 9,100 -1,380 Descending Salt Lake Center
10:09PM 43.3722 -116.5644 39° Northeast 281 323 7,600 -1,440 Descending Salt Lake Center
10:11PM 43.4292 -116.5031 38° Northeast 274 315 6,200 -1,020 Descending Salt Lake Center
10:12PM 43.4889 -116.4372 39° Northeast 251 289 5,600 -840 Descending Salt Lake Center
10:13PM 43.5400 -116.3822 38° Northeast 226 260 4,500 -600 Descending Salt Lake Center
10:14PM 43.5814 -116.3339 40° Northeast 204 235 4,500 -480 Level Salt Lake Center
10:15PM 43.5875 -116.2833 81° East 147 169 3,600 -600 Descending Salt Lake Center
10:16PM 43.5719 -116.2372 115° Southeast 143 165 3,300 -300 Descending Salt Lake Center
10:18PM 43.5644 -116.2229 133° Southeast  Level Estimated
10:25PM 43.5644 -116.2229 133° Southeast  Level Estimated